createdAt,value
2022-10-07T00:56:02.582Z,8.3
2022-10-07T01:28:36.010Z,8.5
2022-10-07T01:35:10.753Z,8.5
2022-10-07T02:00:58.876Z,8.2
2022-10-07T02:14:09.860Z,8
2022-10-07T02:26:57.172Z,8.2
2022-10-07T02:40:02.914Z,7.9
2022-10-07T02:46:47.464Z,8
2022-10-07T03:06:12.910Z,8
2022-10-07T03:39:38.562Z,7.5
2022-10-07T03:52:37.953Z,7.4
2022-10-07T03:58:37.101Z,7.3
2022-10-07T04:04:29.682Z,7.5
2022-10-07T04:10:23.680Z,7.5
2022-10-07T04:16:17.222Z,7.4
2022-10-07T04:22:10.623Z,7.2
2022-10-07T04:34:55.033Z,7.1
2022-10-07T04:40:54.492Z,7.2
2022-10-07T04:47:00.042Z,6.9
2022-10-07T04:52:55.464Z,7
2022-10-07T04:58:51.369Z,7.2
2022-10-07T05:04:51.253Z,7
2022-10-07T05:10:49.562Z,7.2
2022-10-07T05:16:50.638Z,7.3
2022-10-07T05:22:44.184Z,7.4
2022-10-07T05:28:40.419Z,7.1
2022-10-07T05:34:36.024Z,6.8
2022-10-07T05:40:33.481Z,6.8
2022-10-07T05:46:43.340Z,7.1
2022-10-07T05:52:36.805Z,7.3
2022-10-07T05:58:29.323Z,7.4
2022-10-07T06:04:26.814Z,7.5
2022-10-07T06:10:19.870Z,7.7
2022-10-07T06:16:25.404Z,7.8
2022-10-07T06:22:19.346Z,7.5
2022-10-07T06:28:13.497Z,7.7
2022-10-07T06:34:06.417Z,7.4
2022-10-07T06:39:59.973Z,7.3
2022-10-07T06:45:51.914Z,7.5
2022-10-07T06:51:43.435Z,7.6
2022-10-07T06:57:45.138Z,7.4
2022-10-07T07:03:34.771Z,7.4
2022-10-07T07:09:26.638Z,7.8
2022-10-07T07:15:20.371Z,7.9
2022-10-07T07:21:11.138Z,8.2
2022-10-07T07:27:06.611Z,8.2
2022-10-07T07:32:56.657Z,8
2022-10-07T07:38:50.616Z,8.4
2022-10-07T07:44:41.451Z,8.4
2022-10-07T07:50:33.144Z,8.6
2022-10-07T07:56:24.800Z,8.6
2022-10-07T08:02:18.208Z,8.7
2022-10-07T08:08:09.350Z,8.5
2022-10-07T08:14:01.074Z,8.7
2022-10-07T08:19:57.737Z,9
2022-10-07T08:25:51.183Z,9.3
2022-10-07T08:31:42.759Z,9.4
2022-10-07T08:37:34.604Z,9.7
2022-10-07T08:43:28.648Z,10
2022-10-07T08:49:20.849Z,10.3
2022-10-07T08:55:14.789Z,10.4
2022-10-07T09:01:05.774Z,10.7
2022-10-07T09:06:59.436Z,11.2
2022-10-07T09:12:49.689Z,11.5
2022-10-07T09:18:40.958Z,11.8
2022-10-07T09:24:32.842Z,12
2022-10-07T09:30:24.070Z,12.4
2022-10-07T09:36:15.037Z,12.6
2022-10-07T09:42:08.842Z,12.7
2022-10-07T09:48:00.319Z,13.1
2022-10-07T09:53:52.545Z,13.2
2022-10-07T09:59:44.067Z,13.4
2022-10-07T10:05:36.361Z,13.6
2022-10-07T10:11:28.314Z,13.6
2022-10-07T10:17:19.322Z,14
2022-10-07T10:23:11.724Z,14.1
2022-10-07T10:29:02.518Z,14.4
2022-10-07T10:34:51.727Z,14.7
2022-10-07T10:40:41.298Z,14.9
2022-10-07T10:46:31.050Z,15
2022-10-07T10:52:21.534Z,15.3
2022-10-07T10:58:11.800Z,15.3
2022-10-07T11:04:01.507Z,15.3
2022-10-07T11:09:51.926Z,15.6
2022-10-07T11:15:43.142Z,15.7
2022-10-07T11:21:33.202Z,15.8
2022-10-07T11:27:24.492Z,15.9
2022-10-07T11:33:15.271Z,16.1
2022-10-07T11:39:05.067Z,16.5
2022-10-07T11:44:56.067Z,16.4
2022-10-07T11:50:46.261Z,16.5
2022-10-07T11:56:37.181Z,16.7
2022-10-07T12:02:27.711Z,16.7
2022-10-07T12:08:19.530Z,16.7
2022-10-07T12:14:11.490Z,16.7
2022-10-07T12:20:03.383Z,16.8
2022-10-07T12:25:56.597Z,16.6
2022-10-07T12:31:48.527Z,16.9
2022-10-07T12:37:39.389Z,17
2022-10-07T12:43:31.288Z,17
2022-10-07T12:49:21.663Z,17.2
2022-10-07T12:55:13.250Z,17.2
2022-10-07T13:01:03.912Z,17.3
2022-10-07T13:06:55.872Z,17.4
2022-10-07T13:12:55.589Z,17.3
2022-10-07T13:18:47.440Z,17.4
2022-10-07T13:24:47.535Z,17.5
2022-10-07T13:30:39.910Z,17.5
2022-10-07T13:36:35.261Z,17.6
2022-10-07T13:42:26.878Z,17.6
2022-10-07T13:48:19.840Z,17.7
2022-10-07T13:54:11.235Z,17.9
2022-10-07T14:00:02.940Z,17.7
2022-10-07T14:05:55.297Z,17.9
2022-10-07T14:11:46.162Z,17.7
2022-10-07T14:17:37.879Z,18
2022-10-07T14:23:28.871Z,18
2022-10-07T14:29:19.885Z,18
2022-10-07T14:35:10.132Z,17.9
2022-10-07T14:41:00.134Z,18
2022-10-07T14:46:50.871Z,18
2022-10-07T14:52:44.694Z,18
2022-10-07T14:58:37.195Z,18.1
2022-10-07T15:04:28.349Z,18.1
2022-10-07T15:10:21.231Z,18
2022-10-07T15:16:11.959Z,17.9
2022-10-07T15:22:06.549Z,17.9
2022-10-07T15:27:56.701Z,17.9
2022-10-07T15:33:47.155Z,17.9
2022-10-07T15:39:39.782Z,17.8
2022-10-07T15:45:33.612Z,17.8
2022-10-07T15:51:29.469Z,17.6
2022-10-07T15:57:22.253Z,17.6
2022-10-07T16:03:13.963Z,17.5
2022-10-07T16:09:06.836Z,17.5
2022-10-07T16:14:59.525Z,17.3
2022-10-07T16:20:50.754Z,17.1
2022-10-07T16:26:41.608Z,17
2022-10-07T16:32:32.619Z,16.8
2022-10-07T16:38:24.581Z,16.7
2022-10-07T16:44:16.632Z,16.4
2022-10-07T16:50:10.985Z,16.3
2022-10-07T16:56:01.655Z,16
2022-10-07T17:01:52.657Z,15.9
2022-10-07T17:07:45.554Z,15.9
2022-10-07T17:13:39.445Z,15.8
2022-10-07T17:19:29.778Z,15.7
2022-10-07T17:25:20.464Z,15.6
2022-10-07T17:31:10.664Z,15.5
2022-10-07T17:37:00.542Z,15.3
2022-10-07T17:42:50.971Z,15.1
2022-10-07T17:48:40.978Z,14.9
2022-10-07T17:54:31.790Z,14.8
2022-10-07T18:00:22.884Z,14.6
2022-10-07T18:06:15.952Z,14.5
2022-10-07T18:12:05.971Z,14.2
2022-10-07T18:17:56.764Z,14.1
2022-10-07T18:23:48.087Z,13.9
2022-10-07T18:29:41.788Z,13.8
2022-10-07T18:35:35.630Z,13.7
2022-10-07T18:41:27.770Z,13.7
2022-10-07T18:47:19.858Z,13.5
2022-10-07T18:53:08.795Z,13.6
2022-10-07T18:58:58.160Z,13.5
2022-10-07T19:04:47.714Z,13.4
2022-10-07T19:10:38.576Z,13.2
2022-10-07T19:16:27.211Z,13.3
2022-10-07T19:22:17.643Z,13.3
2022-10-07T19:28:10.153Z,13.3
2022-10-07T19:34:00.510Z,13.1
2022-10-07T19:39:50.363Z,12.9
2022-10-07T19:45:39.118Z,12.6
2022-10-07T19:51:30.124Z,12.5
2022-10-07T19:57:21.452Z,12.6
2022-10-07T20:03:11.896Z,12.4
2022-10-07T20:09:01.154Z,12.4
2022-10-07T20:14:52.222Z,12.4
2022-10-07T20:20:42.578Z,12.3
2022-10-07T20:26:35.325Z,12.3
2022-10-07T20:32:27.757Z,12.2
2022-10-07T20:38:18.692Z,12
2022-10-07T20:44:07.834Z,11.8
2022-10-07T20:49:59.244Z,11.7
2022-10-07T20:55:50.087Z,11.6
2022-10-07T21:01:39.821Z,12
2022-10-07T21:07:30.249Z,11.7
2022-10-07T21:13:21.553Z,11.5
2022-10-07T21:19:10.698Z,11.4
2022-10-07T21:25:00.958Z,11.3
2022-10-07T21:30:51.218Z,11.2
2022-10-07T21:36:41.317Z,11.1
2022-10-07T21:42:38.553Z,11.1
2022-10-07T21:48:30.399Z,11
2022-10-07T21:54:21.196Z,10.9
2022-10-07T22:00:13.222Z,11
2022-10-07T22:06:10.962Z,10.8
2022-10-07T22:12:08.520Z,10.8
2022-10-07T22:18:06.557Z,10.7
2022-10-07T22:24:00.436Z,10.8
2022-10-07T22:29:54.611Z,10.6
2022-10-07T22:41:54.211Z,10.7
2022-10-07T22:47:45.466Z,10.5
2022-10-07T22:53:40.789Z,10.2
2022-10-07T22:59:39.007Z,10.3
2022-10-07T23:05:35.067Z,10.2
2022-10-07T23:11:29.349Z,10.2
2022-10-07T23:17:26.224Z,10.3
2022-10-07T23:23:26.311Z,10.2
2022-10-07T23:29:27.869Z,9.9
2022-10-07T23:41:27.514Z,9.4
2022-10-07T23:47:27.651Z,9.4
2022-10-07T23:53:45.799Z,9.5
2022-10-07T23:59:52.936Z,9.4
